Time;durP1;ratioP1;P1;durP2;ratioP2;P2;SDS_P1;SDS_P2;PMS_P1;PMS_P2;Temp;Humidity;BMP_temperature;BMP_pressure;BME280_temperature;BME280_humidity;BME280_pressure;Samples;Min_cycle;Max_cycle;Signal;HPM_P1;HPM_P2
2020/12/17 00:02:17;;;;;;;15.97;13.90;;;7.70;47.50;;;;;;10403668;28;20226;-79
2020/12/17 00:07:20;;;;;;;18.40;15.13;;;7.70;47.50;;;;;;10404137;28;20309;-79
2020/12/17 00:12:22;;;;;;;17.60;14.27;;;7.60;47.40;;;;;;10404946;22;20236;-72
2020/12/17 00:17:24;;;;;;;20.33;15.87;;;7.60;47.50;;;;;;10411109;28;20308;-72
2020/12/17 00:22:33;;;;;;;16.23;14.17;;;7.70;47.50;;;;;;10414228;28;20230;-72
2020/12/17 00:27:37;;;;;;;15.87;13.93;;;7.70;47.40;;;;;;10449795;22;20236;-76
2020/12/17 00:32:40;;;;;;;13.83;12.30;;;7.70;47.40;;;;;;10425947;28;20225;-77
2020/12/17 00:37:44;;;;;;;14.80;12.93;;;7.60;47.30;;;;;;10430877;28;20228;-76
2020/12/17 00:42:48;;;;;;;16.63;12.70;;;7.60;47.20;;;;;;10440903;28;20225;-77
2020/12/17 00:47:50;;;;;;;18.77;15.40;;;7.60;47.30;;;;;;10428035;28;20233;-76
2020/12/17 00:52:53;;;;;;;19.27;14.90;;;7.50;47.30;;;;;;10425814;28;20231;-77
2020/12/17 00:57:56;;;;;;;18.60;14.57;;;7.50;47.30;;;;;;10411583;28;20276;-77
2020/12/17 01:02:58;;;;;;;18.57;15.07;;;7.40;47.30;;;;;;10421719;28;20708;-77
2020/12/17 01:08:01;;;;;;;18.30;15.00;;;7.30;47.30;;;;;;10426754;28;20738;-77
2020/12/17 01:13:04;;;;;;;16.10;13.67;;;7.20;47.40;;;;;;10411453;28;20255;-77
2020/12/17 01:18:07;;;;;;;17.47;14.63;;;7.20;47.50;;;;;;10424189;28;20277;-77
2020/12/17 01:23:11;;;;;;;15.90;13.43;;;7.20;47.50;;;;;;10428800;28;20218;-77
2020/12/17 01:28:13;;;;;;;14.87;12.73;;;7.20;47.50;;;;;;10407154;28;20308;-77
2020/12/17 01:33:18;;;;;;;15.17;13.47;;;7.20;47.30;;;;;;10416932;28;20796;-77
2020/12/17 01:38:21;;;;;;;18.20;13.50;;;7.10;47.40;;;;;;10413111;28;20321;-77
2020/12/17 01:43:23;;;;;;;16.87;13.20;;;7.10;47.40;;;;;;10425035;28;20227;-77
2020/12/17 01:48:25;;;;;;;17.23;13.43;;;7.00;47.30;;;;;;10417140;28;20233;-77
2020/12/17 01:53:28;;;;;;;16.03;13.23;;;6.90;47.40;;;;;;10408662;28;20236;-77
2020/12/17 01:58:39;;;;;;;17.23;13.40;;;6.80;47.60;;;;;;10426329;28;20252;-77
2020/12/17 02:03:41;;;;;;;15.70;13.73;;;6.70;48.00;;;;;;10423109;28;20717;-76
2020/12/17 02:08:44;;;;;;;15.77;13.40;;;6.70;48.00;;;;;;10426652;28;20240;-77
2020/12/17 02:13:47;;;;;;;16.77;13.63;;;6.60;48.10;;;;;;10428779;28;20221;-77
2020/12/17 02:18:52;;;;;;;17.17;13.17;;;6.70;48.10;;;;;;10411599;28;20230;-77
2020/12/17 02:23:56;;;;;;;17.60;13.10;;;6.70;48.10;;;;;;10415964;28;20242;-76
2020/12/17 02:28:59;;;;;;;15.67;12.57;;;6.80;48.10;;;;;;10434726;28;20233;-77
2020/12/17 02:34:01;;;;;;;17.20;12.87;;;6.80;47.90;;;;;;10405754;28;20321;-77
2020/12/17 02:39:04;;;;;;;15.67;12.67;;;6.70;47.70;;;;;;10427589;28;20609;-77
2020/12/17 02:44:07;;;;;;;15.37;12.57;;;6.60;48.00;;;;;;10420684;28;20247;-77
2020/12/17 02:49:10;;;;;;;14.50;12.23;;;6.60;48.10;;;;;;10424798;28;20764;-76
2020/12/17 02:54:12;;;;;;;14.30;12.17;;;6.60;48.10;;;;;;10415579;28;20693;-77
2020/12/17 02:59:15;;;;;;;12.50;11.03;;;6.60;48.00;;;;;;10424519;28;20693;-77
2020/12/17 03:04:17;;;;;;;14.67;12.23;;;6.50;48.00;;;;;;10417235;28;20305;-76
2020/12/17 03:09:19;;;;;;;17.73;12.73;;;6.50;48.10;;;;;;10419010;28;20308;-77
2020/12/17 03:14:22;;;;;;;15.47;12.23;;;6.50;48.10;;;;;;10414907;28;20243;-77
2020/12/17 03:19:24;;;;;;;14.80;11.60;;;6.50;48.10;;;;;;10424861;28;20226;-76
2020/12/17 03:24:27;;;;;;;14.93;11.97;;;6.50;48.10;;;;;;10420205;28;20735;-77
2020/12/17 03:29:30;;;;;;;14.57;12.33;;;6.60;48.20;;;;;;10420372;28;20228;-77
2020/12/17 03:34:32;;;;;;;17.30;13.37;;;6.60;48.30;;;;;;10420824;28;20588;-77
2020/12/17 03:39:34;;;;;;;12.90;11.13;;;6.60;47.90;;;;;;10428543;28;20243;-76
2020/12/17 03:44:37;;;;;;;19.17;13.40;;;6.50;47.90;;;;;;10423151;28;20296;-77
2020/12/17 03:49:39;;;;;;;17.93;13.43;;;6.50;48.00;;;;;;10432999;28;20229;-76
2020/12/17 03:54:41;;;;;;;16.57;13.47;;;6.40;48.00;;;;;;10420838;28;20226;-77
2020/12/17 03:59:44;;;;;;;15.80;13.37;;;6.40;48.10;;;;;;10422480;28;20374;-77
2020/12/17 04:04:47;;;;;;;16.33;12.70;;;6.40;48.40;;;;;;10428173;28;20758;-76
2020/12/17 04:09:49;;;;;;;14.57;11.47;;;6.40;48.50;;;;;;10420663;28;20313;-77
2020/12/17 04:20:50;;;;;;;14.37;11.83;;;6.50;48.50;;;;;;10426224;28;20600;-77
2020/12/17 04:25:52;;;;;;;14.03;11.70;;;6.40;48.20;;;;;;10424557;28;20231;-77
2020/12/17 04:30:55;;;;;;;12.73;10.87;;;6.40;48.10;;;;;;10442277;28;20303;-77
2020/12/17 04:35:58;;;;;;;12.50;11.20;;;6.40;48.00;;;;;;10430270;28;20224;-76
2020/12/17 04:41:04;;;;;;;12.93;11.23;;;6.40;48.10;;;;;;10433485;28;20220;-77
2020/12/17 04:46:11;;;;;;;13.33;11.50;;;6.40;48.10;;;;;;10429009;28;20650;-76
2020/12/17 04:51:15;;;;;;;14.30;11.67;;;6.30;48.00;;;;;;10424428;28;20233;-77
2020/12/17 04:56:20;;;;;;;14.17;11.30;;;6.30;47.90;;;;;;10414790;28;20689;-77
2020/12/17 05:01:22;;;;;;;13.00;10.97;;;6.30;48.10;;;;;;10417713;28;20260;-77
2020/12/17 05:06:26;;;;;;;14.17;12.60;;;6.30;48.00;;;;;;10433102;28;20222;-77
2020/12/17 05:11:28;;;;;;;14.90;12.67;;;6.30;48.20;;;;;;10423056;28;20226;-77
2020/12/17 05:16:32;;;;;;;14.53;11.80;;;6.30;48.10;;;;;;10425902;28;20592;-77
2020/12/17 05:21:35;;;;;;;15.13;12.47;;;6.30;48.00;;;;;;10434866;28;20226;-77
2020/12/17 05:26:38;;;;;;;14.60;12.80;;;6.30;48.00;;;;;;10433096;28;20222;-77
2020/12/17 05:31:40;;;;;;;18.23;13.17;;;6.20;47.90;;;;;;10422938;28;20234;-77
2020/12/17 05:36:44;;;;;;;15.83;12.23;;;6.20;48.00;;;;;;10424508;28;20222;-76
2020/12/17 05:41:48;;;;;;;14.13;12.10;;;6.20;48.20;;;;;;10411426;28;20218;-77
2020/12/17 05:46:51;;;;;;;15.00;13.00;;;6.20;48.20;;;;;;10390761;28;20310;-77
2020/12/17 05:52:10;;;;;;;13.57;12.07;;;6.20;48.30;;;;;;10408349;28;20230;-76
2020/12/17 05:57:13;;;;;;;13.87;12.20;;;6.20;48.40;;;;;;10403691;28;20226;-77
2020/12/17 06:02:23;;;;;;;13.63;11.83;;;6.20;48.20;;;;;;10411228;28;20242;-77
2020/12/17 06:07:32;;;;;;;14.70;11.83;;;6.20;48.40;;;;;;10399772;28;20248;-77
2020/12/17 06:12:49;;;;;;;11.47;10.27;;;6.20;48.70;;;;;;10435748;23;20227;-84
2020/12/17 06:17:56;;;;;;;13.40;9.90;;;6.20;48.40;;;;;;10429210;28;20814;-84
2020/12/17 06:23:03;;;;;;;11.77;10.20;;;6.20;48.50;;;;;;10401373;28;20238;-84
2020/12/17 06:28:36;;;;;;;11.20;10.00;;;6.20;48.50;;;;;;10395474;28;20316;-84
2020/12/17 06:33:41;;;;;;;10.70;9.60;;;6.20;48.90;;;;;;10413775;28;20241;-84
2020/12/17 06:38:45;;;;;;;10.37;9.27;;;6.20;48.50;;;;;;10400489;28;20229;-84
2020/12/17 06:43:48;;;;;;;9.33;8.33;;;6.30;48.60;;;;;;10407117;28;20225;-84
2020/12/17 06:48:53;;;;;;;9.47;8.47;;;6.30;48.30;;;;;;10423248;28;20304;-84
2020/12/17 06:53:56;;;;;;;9.57;8.67;;;6.30;48.30;;;;;;10403857;28;20786;-84
2020/12/17 06:59:19;;;;;;;9.97;8.80;;;6.30;48.30;;;;;;10404905;28;20312;-84
2020/12/17 07:04:41;;;;;;;8.77;7.93;;;6.30;48.70;;;;;;10403689;28;20245;-84
2020/12/17 07:09:49;;;;;;;8.90;8.00;;;6.30;48.70;;;;;;10424345;28;20225;-85
2020/12/17 07:14:51;;;;;;;10.63;8.00;;;6.30;48.30;;;;;;10410044;28;20228;-85
2020/12/17 07:19:54;;;;;;;9.07;8.17;;;6.40;48.40;;;;;;10398141;28;20240;-85
2020/12/17 07:24:57;;;;;;;9.10;8.20;;;6.40;48.30;;;;;;10411824;28;20681;-84
2020/12/17 07:30:03;;;;;;;9.47;8.47;;;6.30;48.40;;;;;;10388290;28;20218;-84
2020/12/17 07:35:23;;;;;;;11.10;9.63;;;6.40;48.40;;;;;;10429998;28;20641;-84
2020/12/17 07:40:34;;;;;;;9.80;8.33;;;6.30;48.70;;;;;;10410343;28;20778;-84
2020/12/17 07:45:52;;;;;;;9.80;8.80;;;6.40;49.00;;;;;;10401260;28;20221;-85
2020/12/17 07:50:54;;;;;;;8.93;8.03;;;6.40;48.60;;;;;;10403442;28;20739;-86
2020/12/17 07:55:57;;;;;;;9.63;8.63;;;6.40;48.70;;;;;;10410437;28;20571;-86
2020/12/17 08:01:06;;;;;;;9.93;8.93;;;6.40;48.90;;;;;;10395794;28;20313;-86
2020/12/17 08:06:09;;;;;;;8.20;7.40;;;6.50;49.30;;;;;;10407271;28;20232;-86
2020/12/17 08:11:13;;;;;;;7.57;6.80;;;6.50;48.90;;;;;;10404747;28;20265;-86
2020/12/17 08:16:21;;;;;;;8.60;7.80;;;6.50;49.00;;;;;;10416996;28;20317;-87
2020/12/17 08:21:28;;;;;;;7.23;6.63;;;6.50;49.10;;;;;;10389165;28;20245;-86
2020/12/17 08:26:41;;;;;;;7.10;6.53;;;6.50;49.00;;;;;;10403513;28;20228;-86
2020/12/17 08:31:46;;;;;;;6.73;6.13;;;6.40;49.30;;;;;;10410030;28;20329;-86
2020/12/17 08:36:49;;;;;;;6.63;6.03;;;6.40;49.00;;;;;;10416159;28;20235;-86
2020/12/17 08:41:55;;;;;;;6.70;6.10;;;6.40;48.90;;;;;;10401964;28;20245;-86
2020/12/17 08:47:00;;;;;;;5.90;5.43;;;6.40;49.00;;;;;;10411488;28;20705;-87
2020/12/17 08:52:05;;;;;;;6.33;5.73;;;6.30;49.30;;;;;;10387580;28;20283;-86
2020/12/17 08:57:13;;;;;;;5.90;5.40;;;6.40;49.40;;;;;;10387632;28;20281;-86
2020/12/17 09:02:23;;;;;;;5.97;5.47;;;6.40;49.10;;;;;;10402430;28;20924;-86
2020/12/17 09:07:30;;;;;;;6.03;5.53;;;6.40;49.20;;;;;;10420159;28;20249;-86
2020/12/17 09:12:34;;;;;;;6.50;5.90;;;6.50;49.20;;;;;;10401062;28;20649;-86
2020/12/17 09:17:38;;;;;;;7.23;6.63;;;6.50;49.00;;;;;;10375013;28;20229;-86
2020/12/17 09:22:53;;;;;;;7.07;6.47;;;6.60;49.30;;;;;;10403381;28;20313;-86
2020/12/17 09:28:18;;;;;;;6.63;6.07;;;6.60;49.60;;;;;;10391485;28;20763;-87
2020/12/17 09:33:37;;;;;;;6.27;5.73;;;6.70;49.30;;;;;;10401747;28;20222;-87
2020/12/17 09:38:39;;;;;;;6.63;6.03;;;6.70;49.00;;;;;;10369731;28;20281;-86
2020/12/17 09:43:51;;;;;;;6.80;6.17;;;6.80;49.00;;;;;;10381841;28;20286;-87
2020/12/17 09:49:03;;;;;;;6.87;6.27;;;6.70;49.20;;;;;;10358227;28;20227;-86
2020/12/17 09:54:06;;;;;;;6.77;6.17;;;6.70;49.20;;;;;;10373587;28;20305;-87
2020/12/17 09:59:09;;;;;;;7.27;6.57;;;6.70;49.10;;;;;;10386325;28;20237;-86
2020/12/17 10:04:26;;;;;;;7.67;6.97;;;6.80;49.10;;;;;;10359990;28;20277;-86
2020/12/17 10:09:31;;;;;;;8.00;7.30;;;6.80;49.20;;;;;;10373272;28;20349;-87
2020/12/17 10:14:35;;;;;;;7.70;6.63;;;6.80;49.40;;;;;;10352060;28;20296;-86
2020/12/17 10:19:45;;;;;;;7.50;6.80;;;6.90;49.50;;;;;;10354768;28;20288;-86
2020/12/17 10:24:49;;;;;;;6.73;6.13;;;7.00;49.70;;;;;;10386010;28;20226;-86
2020/12/17 10:29:53;;;;;;;12.33;9.47;;;7.10;49.40;;;;;;10359662;28;20310;-86
2020/12/17 10:34:56;;;;;;;7.97;7.20;;;7.20;49.70;;;;;;10357618;28;20245;-86
2020/12/17 10:40:01;;;;;;;7.17;6.47;;;7.20;49.10;;;;;;10375026;28;20225;-86
2020/12/17 10:45:04;;;;;;;6.53;6.00;;;7.30;49.10;;;;;;10368045;28;20249;-86
2020/12/17 10:50:09;;;;;;;5.93;5.53;;;7.30;49.30;;;;;;10367068;28;20221;-86
2020/12/17 10:55:11;;;;;;;5.90;5.43;;;7.40;49.30;;;;;;10362391;28;20236;-86
2020/12/17 11:00:14;;;;;;;9.40;8.60;;;7.40;49.00;;;;;;10370514;28;20588;-86
2020/12/17 11:05:22;;;;;;;6.83;6.10;;;7.50;49.00;;;;;;10362210;28;20253;-86
2020/12/17 11:10:24;;;;;;;6.33;5.73;;;7.50;48.80;;;;;;10351957;28;20231;-87
2020/12/17 11:15:27;;;;;;;6.40;5.90;;;7.50;49.00;;;;;;10354879;28;20226;-86
2020/12/17 11:20:32;;;;;;;11.37;7.87;;;7.50;49.20;;;;;;10346987;28;20762;-87
2020/12/17 11:25:39;;;;;;;6.77;6.17;;;7.60;49.30;;;;;;10368758;28;20226;-87
2020/12/17 11:30:42;;;;;;;9.50;7.73;;;7.70;49.20;;;;;;10358377;28;20727;-86
2020/12/17 11:35:45;;;;;;;6.33;5.83;;;7.80;49.10;;;;;;10351452;28;20230;-86
2020/12/17 11:40:49;;;;;;;7.17;6.57;;;7.90;49.20;;;;;;10361129;28;20246;-86
2020/12/17 11:46:07;;;;;;;6.60;6.10;;;7.90;49.00;;;;;;10369644;28;20595;-86
2020/12/17 11:51:10;;;;;;;6.40;5.90;;;7.90;48.80;;;;;;10346607;28;20305;-87
2020/12/17 11:56:12;;;;;;;7.20;6.60;;;7.90;49.00;;;;;;10334879;28;20691;-87
2020/12/17 12:01:16;;;;;;;7.03;6.43;;;8.00;49.20;;;;;;10360392;28;20579;-87
2020/12/17 12:06:19;;;;;;;7.43;6.83;;;8.10;49.40;;;;;;10354716;28;20567;-86
2020/12/17 12:11:21;;;;;;;7.13;6.53;;;8.20;49.30;;;;;;10348798;28;20312;-86
2020/12/17 12:16:30;;;;;;;7.33;6.73;;;8.30;49.00;;;;;;10368099;28;20222;-87
2020/12/17 12:21:35;;;;;;;6.73;6.23;;;8.30;48.70;;;;;;10380573;28;20731;-88
2020/12/17 12:26:43;;;;;;;8.07;7.37;;;8.40;48.80;;;;;;10373596;28;20768;-87
2020/12/17 12:31:50;;;;;;;7.67;7.07;;;8.40;48.60;;;;;;10376448;28;20238;-86
2020/12/17 12:37:02;;;;;;;7.27;6.67;;;8.40;48.70;;;;;;10345045;28;20229;-87
2020/12/17 12:42:06;;;;;;;7.07;6.57;;;8.50;48.80;;;;;;10362863;28;20305;-87
2020/12/17 12:47:19;;;;;;;7.13;6.50;;;8.60;49.00;;;;;;10362616;28;20254;-85
2020/12/17 12:52:22;;;;;;;6.67;6.13;;;8.60;48.80;;;;;;10375097;28;20413;-86
2020/12/17 12:57:24;;;;;;;7.43;6.83;;;8.70;48.80;;;;;;10373603;28;20250;-87
2020/12/17 13:02:27;;;;;;;7.77;7.07;;;8.70;48.80;;;;;;10365882;28;20289;-86
2020/12/17 13:07:30;;;;;;;8.10;6.90;;;8.80;48.90;;;;;;10370613;28;20250;-86
2020/12/17 13:12:34;;;;;;;7.97;7.23;;;8.90;48.80;;;;;;10377787;28;20238;-87
2020/12/17 13:17:42;;;;;;;8.30;7.50;;;8.90;48.60;;;;;;10364227;28;20245;-86
2020/12/17 13:22:44;;;;;;;8.17;7.47;;;9.00;48.40;;;;;;10371583;28;20250;-86
2020/12/17 13:27:47;;;;;;;7.30;6.70;;;9.00;48.50;;;;;;10372797;28;20230;-86
2020/12/17 13:32:53;;;;;;;7.70;7.10;;;9.00;48.30;;;;;;10371312;28;20305;-86
2020/12/17 13:37:56;;;;;;;8.07;7.37;;;9.00;48.20;;;;;;10366641;28;20675;-86
2020/12/17 13:43:02;;;;;;;9.90;8.87;;;9.00;48.30;;;;;;10368031;28;20690;-87
2020/12/17 13:48:05;;;;;;;9.57;8.67;;;9.10;48.30;;;;;;10371528;28;20238;-87
2020/12/17 13:53:07;;;;;;;9.17;8.37;;;9.10;48.20;;;;;;10367120;28;20254;-85
2020/12/17 13:58:19;;;;;;;7.80;7.10;;;9.00;48.30;;;;;;10349019;28;20644;-86
2020/12/17 14:03:29;;;;;;;8.53;7.87;;;9.10;48.40;;;;;;10373798;28;20222;-86
2020/12/17 14:08:34;;;;;;;7.87;7.17;;;9.10;48.40;;;;;;10339327;28;20599;-86
2020/12/17 14:13:44;;;;;;;8.43;7.73;;;9.20;48.50;;;;;;10350120;28;20309;-85
2020/12/17 14:18:49;;;;;;;8.67;7.97;;;9.30;48.20;;;;;;10364876;28;20238;-85
2020/12/17 14:23:55;;;;;;;7.90;7.20;;;9.40;48.30;;;;;;10358099;28;20662;-85
2020/12/17 14:28:57;;;;;;;8.33;7.63;;;9.40;47.80;;;;;;10347113;28;20242;-85
2020/12/17 14:34:02;;;;;;;7.90;7.30;;;9.40;47.70;;;;;;10371023;28;20232;-85
2020/12/17 14:39:05;;;;;;;8.17;7.47;;;9.30;47.40;;;;;;10370289;28;20230;-87
2020/12/17 14:44:10;;;;;;;6.77;6.00;;;9.30;47.70;;;;;;10384291;28;20230;-86
2020/12/17 14:49:13;;;;;;;8.50;7.80;;;9.20;50.10;;;;;;10366662;28;20235;-85
2020/12/17 14:54:15;;;;;;;9.13;8.23;;;9.30;49.40;;;;;;10328527;28;20227;-86
2020/12/17 14:59:23;;;;;;;8.60;7.90;;;9.30;48.40;;;;;;10345735;28;20333;-86
2020/12/17 15:04:27;;;;;;;9.20;8.30;;;9.40;48.10;;;;;;10356997;28;20257;-86
2020/12/17 15:09:29;;;;;;;8.33;7.63;;;9.40;47.70;;;;;;10368611;28;20230;-86
2020/12/17 15:14:31;;;;;;;8.50;7.67;;;9.30;47.60;;;;;;10369249;28;20718;-85
2020/12/17 15:19:35;;;;;;;9.13;8.27;;;9.30;47.40;;;;;;10354749;28;20233;-85
2020/12/17 15:24:37;;;;;;;12.50;11.30;;;9.30;47.40;;;;;;10366508;28;20225;-85
2020/12/17 15:29:39;;;;;;;12.07;10.90;;;9.20;47.30;;;;;;10362128;28;20231;-86
2020/12/17 15:34:44;;;;;;;10.30;9.40;;;9.20;47.40;;;;;;10364856;28;20226;-85
2020/12/17 15:39:48;;;;;;;12.80;11.07;;;9.20;47.00;;;;;;10376473;28;20252;-86
2020/12/17 15:44:52;;;;;;;22.40;14.80;;;9.10;47.00;;;;;;10376249;28;20310;-86
2020/12/17 15:49:55;;;;;;;19.87;14.77;;;9.00;48.10;;;;;;10376922;28;20242;-86
2020/12/17 15:55:00;;;;;;;15.43;13.83;;;9.00;47.70;;;;;;10377036;28;20271;-85
2020/12/17 16:00:03;;;;;;;11.83;10.63;;;9.00;47.10;;;;;;10368506;28;20233;-86
2020/12/17 16:05:09;;;;;;;8.63;7.93;;;9.00;47.10;;;;;;10327575;28;20233;-85
2020/12/17 16:10:11;;;;;;;8.67;7.97;;;9.00;47.10;;;;;;10328208;28;20227;-85
2020/12/17 16:15:19;;;;;;;9.80;8.90;;;9.00;46.90;;;;;;10326720;28;20230;-85
2020/12/17 16:20:23;;;;;;;8.77;8.03;;;8.90;46.30;;;;;;10338604;28;20698;-84
2020/12/17 16:25:25;;;;;;;8.17;7.47;;;8.90;46.50;;;;;;10325122;28;20388;-84
2020/12/17 16:30:34;;;;;;;8.63;7.93;;;8.80;46.60;;;;;;10352850;28;20226;-85
2020/12/17 16:35:37;;;;;;;7.73;7.07;;;8.70;46.20;;;;;;10360711;28;20301;-89
2020/12/17 16:40:39;;;;;;;7.70;7.07;;;8.70;46.60;;;;;;10354030;28;20273;-86
2020/12/17 16:45:41;;;;;;;11.83;10.83;;;8.60;46.80;;;;;;10358776;28;20699;-86
2020/12/17 16:50:47;;;;;;;13.60;12.30;;;8.60;46.90;;;;;;10366547;28;20227;-86
2020/12/17 16:55:52;;;;;;;16.53;14.83;;;8.50;46.70;;;;;;10361418;28;20658;-86
2020/12/17 17:00:58;;;;;;;16.37;14.87;;;8.60;47.00;;;;;;10369654;28;20226;-87
2020/12/17 17:06:03;;;;;;;19.53;17.73;;;8.50;46.90;;;;;;10358921;28;20222;-87
2020/12/17 17:11:06;;;;;;;13.80;12.50;;;8.50;46.90;;;;;;10334396;28;20321;-86
2020/12/17 17:16:12;;;;;;;14.03;12.83;;;8.50;46.90;;;;;;10375538;28;20219;-86
2020/12/17 17:21:22;;;;;;;12.17;11.17;;;8.40;46.90;;;;;;10373954;28;20296;-86
2020/12/17 17:26:29;;;;;;;13.40;12.10;;;8.40;46.90;;;;;;10349354;28;20223;-86
2020/12/17 17:31:35;;;;;;;12.93;11.63;;;8.40;46.90;;;;;;10364988;28;20257;-87
2020/12/17 17:36:40;;;;;;;29.40;21.57;;;8.40;46.80;;;;;;10363432;28;20230;-88
2020/12/17 17:41:48;;;;;;;15.77;13.33;;;8.30;46.70;;;;;;10345169;28;20309;-87
2020/12/17 17:46:51;;;;;;;13.40;12.10;;;8.30;46.70;;;;;;10369328;28;20922;-86
2020/12/17 17:51:56;;;;;;;13.57;12.43;;;8.30;46.60;;;;;;10365076;28;20232;-86
2020/12/17 17:56:59;;;;;;;13.13;11.93;;;8.20;46.60;;;;;;10340637;28;20576;-88
2020/12/17 18:02:10;;;;;;;14.87;13.57;;;8.20;46.80;;;;;;10381753;28;20691;-87
2020/12/17 18:07:14;;;;;;;13.43;12.23;;;8.10;46.70;;;;;;10404477;28;20317;-86
2020/12/17 18:12:28;;;;;;;13.30;12.00;;;8.10;46.80;;;;;;10388347;28;20308;-87
2020/12/17 18:17:33;;;;;;;12.50;11.33;;;7.90;46.70;;;;;;10409598;28;20743;-87
2020/12/17 18:22:36;;;;;;;10.97;9.97;;;7.80;46.90;;;;;;10398476;28;20285;-86
2020/12/17 18:27:39;;;;;;;11.23;10.23;;;7.80;46.90;;;;;;10393118;28;20236;-86
2020/12/17 18:32:47;;;;;;;11.47;10.37;;;7.70;47.00;;;;;;10405130;28;20305;-86
2020/12/17 18:37:50;;;;;;;13.57;10.70;;;7.60;47.00;;;;;;10380559;28;20263;-88
2020/12/17 18:42:59;;;;;;;12.67;11.00;;;7.60;47.20;;;;;;10390451;28;20317;-87
2020/12/17 18:48:09;;;;;;;11.63;10.63;;;7.60;47.40;;;;;;10366592;28;20291;-87
2020/12/17 19:31:53;;;;;;;21.10;10.40;;;7.30;47.40;;;;;;10440042;23;20216;-76
2020/12/17 19:36:56;;;;;;;38.10;13.33;;;7.20;47.30;;;;;;10435095;28;20244;-76
2020/12/17 19:42:00;;;;;;;47.43;18.80;;;7.20;47.40;;;;;;10439698;28;20615;-76
2020/12/17 19:47:04;;;;;;;47.70;10.07;;;7.20;47.30;;;;;;10434136;28;20677;-77
2020/12/17 19:52:07;;;;;;;20.53;9.50;;;7.10;47.00;;;;;;10427996;28;20255;-76
2020/12/17 19:57:09;;;;;;;16.97;9.60;;;7.00;47.00;;;;;;10438598;28;20307;-76
2020/12/17 20:02:12;;;;;;;13.57;8.23;;;7.00;47.20;;;;;;10444711;28;20229;-76
2020/12/17 20:07:14;;;;;;;21.23;8.73;;;7.00;47.40;;;;;;10436052;28;20233;-75
2020/12/17 20:12:20;;;;;;;23.30;8.00;;;6.90;47.00;;;;;;10434654;28;20312;-77
2020/12/17 20:17:24;;;;;;;20.53;8.00;;;6.90;47.00;;;;;;10437821;28;20244;-78
2020/12/17 20:22:26;;;;;;;8.87;7.10;;;6.80;47.00;;;;;;10446558;28;20708;-76
2020/12/17 20:27:28;;;;;;;12.80;7.97;;;6.80;47.30;;;;;;10440392;28;20221;-76
2020/12/17 20:32:31;;;;;;;42.33;8.27;;;6.80;47.20;;;;;;10450055;22;20595;-71
2020/12/17 20:37:33;;;;;;;8.77;7.97;;;6.80;47.30;;;;;;10421755;28;20324;-71
2020/12/17 20:42:36;;;;;;;14.17;6.53;;;6.70;47.00;;;;;;10418833;28;20229;-71
2020/12/17 20:47:39;;;;;;;6.10;5.60;;;6.60;46.90;;;;;;10424274;28;20324;-71
2020/12/17 20:52:42;;;;;;;31.33;5.80;;;6.50;47.20;;;;;;10429610;28;20225;-71
2020/12/17 20:57:44;;;;;;;65.37;6.33;;;6.50;47.20;;;;;;10422107;28;20217;-73
2020/12/17 21:02:47;;;;;;;26.10;5.53;;;6.40;47.10;;;;;;10431876;28;20224;-73
2020/12/17 21:07:49;;;;;;;29.10;5.90;;;6.30;46.90;;;;;;10427589;28;20739;-73
2020/12/17 21:12:51;;;;;;;24.33;5.20;;;6.20;47.10;;;;;;10433182;28;20217;-73
2020/12/17 21:17:55;;;;;;;6.70;5.10;;;6.20;47.40;;;;;;10416802;28;20241;-71
2020/12/17 21:22:58;;;;;;;4.97;4.57;;;6.10;47.50;;;;;;10430342;28;20231;-71
2020/12/17 21:28:01;;;;;;;8.43;5.27;;;6.10;47.40;;;;;;10437166;28;20221;-71
2020/12/17 21:33:05;;;;;;;8.57;5.13;;;6.00;47.40;;;;;;10429432;28;20247;-71
2020/12/17 21:38:07;;;;;;;8.97;5.10;;;6.00;47.60;;;;;;10437902;28;20244;-71
2020/12/17 21:43:11;;;;;;;11.77;5.40;;;6.00;47.80;;;;;;10429909;28;20222;-71
2020/12/17 21:48:14;;;;;;;6.73;4.17;;;6.00;47.70;;;;;;10430459;28;20232;-71
2020/12/17 21:53:20;;;;;;;8.70;4.10;;;6.00;47.70;;;;;;10423292;28;20782;-71
2020/12/17 21:58:22;;;;;;;4.57;4.17;;;6.00;47.80;;;;;;10427855;28;20249;-73
2020/12/17 22:03:26;;;;;;;3.70;3.50;;;6.00;47.90;;;;;;10423619;28;20229;-73
2020/12/17 22:08:45;;;;;;;7.93;4.50;;;6.00;47.90;;;;;;10424610;28;20300;-74
2020/12/17 22:13:47;;;;;;;4.33;3.93;;;6.10;47.60;;;;;;10437397;28;20224;-71
2020/12/17 22:18:52;;;;;;;8.47;4.20;;;6.10;47.60;;;;;;10428107;28;20222;-73
2020/12/17 22:23:54;;;;;;;4.50;4.13;;;6.10;47.80;;;;;;10431799;28;20227;-74
2020/12/17 22:28:57;;;;;;;4.90;4.50;;;6.10;47.70;;;;;;10429487;28;20228;-73
2020/12/17 22:34:01;;;;;;;4.63;4.27;;;6.10;47.70;;;;;;10422263;28;20236;-71
2020/12/17 22:39:04;;;;;;;4.20;3.90;;;6.10;47.60;;;;;;10409852;28;20225;-71
2020/12/17 22:44:06;;;;;;;5.77;3.93;;;6.10;47.50;;;;;;10428221;28;20229;-71
2020/12/17 22:49:11;;;;;;;3.97;3.67;;;6.00;47.50;;;;;;10429819;28;20295;-71
2020/12/17 22:54:14;;;;;;;7.67;6.70;;;6.00;47.40;;;;;;10434901;28;20230;-71
2020/12/17 22:59:17;;;;;;;5.00;4.60;;;6.00;47.30;;;;;;10431344;28;20234;-71
2020/12/17 23:04:20;;;;;;;5.07;4.57;;;5.90;47.50;;;;;;10428115;28;20263;-71
2020/12/17 23:09:23;;;;;;;4.10;3.80;;;6.00;47.90;;;;;;10419893;28;20221;-71
2020/12/17 23:14:25;;;;;;;15.40;4.40;;;6.00;47.70;;;;;;10415054;28;20245;-71
2020/12/17 23:19:28;;;;;;;4.60;4.03;;;6.00;47.40;;;;;;10407653;28;20229;-71
2020/12/17 23:24:30;;;;;;;4.07;3.77;;;6.00;47.60;;;;;;10428458;28;20221;-71
2020/12/17 23:29:32;;;;;;;5.37;4.27;;;6.00;47.50;;;;;;10418850;28;20230;-71
2020/12/17 23:34:37;;;;;;;32.87;4.47;;;6.00;47.60;;;;;;10420800;28;20596;-71
2020/12/17 23:39:39;;;;;;;32.57;4.63;;;6.00;47.70;;;;;;10428331;28;20229;-71
2020/12/17 23:44:41;;;;;;;17.30;4.00;;;6.00;47.50;;;;;;10411145;28;20234;-71
2020/12/17 23:49:44;;;;;;;7.17;3.70;;;6.00;47.40;;;;;;10413563;28;20296;-71
2020/12/17 23:54:46;;;;;;;27.53;4.57;;;5.90;47.40;;;;;;10426792;28;20783;-71
2020/12/17 23:59:48;;;;;;;3.90;3.60;;;5.80;47.60;;;;;;10420375;28;20229;-71
